createdAt,value
2023-03-17T00:01:41.102Z,57.91
2023-03-17T00:04:11.614Z,58.23
2023-03-17T00:06:38.269Z,58.05
2023-03-17T00:09:10.436Z,58.38
2023-03-17T00:11:36.851Z,58.83
2023-03-17T00:14:04.056Z,58.73
2023-03-17T00:16:32.520Z,58.77
2023-03-17T00:18:58.988Z,58.44
2023-03-17T00:21:30.656Z,58.34
2023-03-17T00:23:58.227Z,58.96
2023-03-17T00:26:25.194Z,59.12
2023-03-17T00:28:52.970Z,59.03
2023-03-17T00:31:22.142Z,58.61
2023-03-17T00:33:49.646Z,59.50
2023-03-17T00:36:18.951Z,59.66
2023-03-17T00:38:46.030Z,59.39
2023-03-17T00:41:12.780Z,59.25
2023-03-17T00:43:40.118Z,59.14
2023-03-17T00:46:16.607Z,59.60
2023-03-17T00:48:43.930Z,59.55
2023-03-17T00:51:10.736Z,58.96
2023-03-17T00:53:37.612Z,59.39
2023-03-17T00:56:05.137Z,59.14
2023-03-17T00:58:33.407Z,60.02
2023-03-17T01:01:00.874Z,59.90
2023-03-17T01:03:28.254Z,59.88
2023-03-17T01:05:56.948Z,60.22
2023-03-17T01:08:23.892Z,59.89
2023-03-17T01:10:50.364Z,60.63
2023-03-17T01:13:16.820Z,61.27
2023-03-17T01:15:46.202Z,61.82
2023-03-17T01:18:15.869Z,62.12
2023-03-17T01:20:43.189Z,61.97
2023-03-17T01:23:10.491Z,63.06
2023-03-17T01:25:38.569Z,61.98
2023-03-17T01:28:05.890Z,62.49
2023-03-17T01:30:38.405Z,61.95
2023-03-17T01:33:06.753Z,61.49
2023-03-17T01:35:33.249Z,62.04
2023-03-17T01:38:00.577Z,61.54
2023-03-17T01:40:33.255Z,61.74
2023-03-17T01:43:04.294Z,61.35
2023-03-17T01:46:09.803Z,61.85
2023-03-17T01:48:43.028Z,61.90
2023-03-17T01:51:11.957Z,62.29
2023-03-17T01:53:39.669Z,61.51
2023-03-17T01:56:06.537Z,61.47
2023-03-17T01:58:33.668Z,61.17
2023-03-17T02:01:00.129Z,60.98
2023-03-17T02:03:28.048Z,61.60
2023-03-17T02:05:54.520Z,61.18
2023-03-17T02:08:21.762Z,60.70
2023-03-17T02:10:49.603Z,60.80
2023-03-17T02:13:16.721Z,60.54
2023-03-17T02:15:48.392Z,60.81
2023-03-17T02:18:17.134Z,60.04
2023-03-17T02:20:46.658Z,59.79
2023-03-17T02:23:15.909Z,59.76
2023-03-17T02:25:45.028Z,59.60
2023-03-17T02:28:16.178Z,59.81
2023-03-17T02:30:43.597Z,60.34
2023-03-17T02:33:11.897Z,60.04
2023-03-17T02:35:39.617Z,60.18
2023-03-17T02:38:06.315Z,61.25
2023-03-17T02:40:33.159Z,61.49
2023-03-17T02:42:59.978Z,61.82
2023-03-17T02:45:27.220Z,61.84
2023-03-17T02:47:54.238Z,61.86
2023-03-17T02:50:23.659Z,62.43
2023-03-17T02:52:50.899Z,62.51
2023-03-17T02:55:17.866Z,63.25
2023-03-17T02:57:44.516Z,63.35
2023-03-17T03:00:11.790Z,63.27
2023-03-17T03:02:38.398Z,62.87
2023-03-17T03:05:06.501Z,62.67
2023-03-17T03:07:33.058Z,62.60
2023-03-17T03:09:59.526Z,62.44
2023-03-17T03:12:26.014Z,62.16
2023-03-17T03:14:52.438Z,62.17
2023-03-17T03:17:19.267Z,62.21
2023-03-17T03:19:45.717Z,61.90
2023-03-17T03:22:12.339Z,61.80
2023-03-17T03:24:38.786Z,62.21
2023-03-17T03:27:05.349Z,62.43
2023-03-17T03:29:32.011Z,62.67
2023-03-17T03:31:58.458Z,62.37
2023-03-17T03:34:24.859Z,62.51
2023-03-17T03:36:51.285Z,63.09
2023-03-17T03:39:17.745Z,62.42
2023-03-17T03:41:44.210Z,63.14
2023-03-17T03:44:11.001Z,63.50
2023-03-17T03:46:37.428Z,63.63
2023-03-17T03:49:03.908Z,63.99
2023-03-17T03:51:30.430Z,64.24
2023-03-17T03:53:56.834Z,64.69
2023-03-17T03:56:23.194Z,64.88
2023-03-17T03:58:50.002Z,64.30
2023-03-17T04:01:16.407Z,63.80
2023-03-17T04:03:42.873Z,64.75
2023-03-17T04:06:09.335Z,65.05
2023-03-17T04:08:35.745Z,65.25
2023-03-17T04:11:02.345Z,65.58
2023-03-17T04:13:28.775Z,65.51
2023-03-17T04:15:55.249Z,65.67
2023-03-17T04:18:21.971Z,65.76
2023-03-17T04:20:48.498Z,66.44
2023-03-17T04:23:14.932Z,66.40
2023-03-17T04:25:41.384Z,67.07
2023-03-17T04:28:08.995Z,66.88
2023-03-17T04:30:35.441Z,66.71
2023-03-17T04:33:02.128Z,66.98
2023-03-17T04:35:28.558Z,66.83
2023-03-17T04:37:54.995Z,67.09
2023-03-17T04:40:21.565Z,66.54
2023-03-17T04:42:47.996Z,66.72
2023-03-17T04:45:17.558Z,66.56
2023-03-17T04:47:45.956Z,66.63
2023-03-17T04:50:13.340Z,66.47
2023-03-17T04:52:40.335Z,67.23
2023-03-17T04:55:11.770Z,67.10
2023-03-17T04:57:38.685Z,67.51
2023-03-17T05:00:08.276Z,67.84
2023-03-17T05:02:35.177Z,68.15
2023-03-17T05:05:02.078Z,68.87
2023-03-17T05:07:28.516Z,69.96
2023-03-17T05:09:54.904Z,70.88
2023-03-17T05:12:22.768Z,71.28
2023-03-17T05:14:49.374Z,71.97
2023-03-17T05:17:16.246Z,72.31
2023-03-17T05:19:43.041Z,73.93
2023-03-17T05:22:09.789Z,73.43
2023-03-17T05:24:36.315Z,74.68
2023-03-17T05:27:03.041Z,75.25
2023-03-17T05:29:30.011Z,75.77
2023-03-17T05:31:56.483Z,75.56
2023-03-17T05:34:22.954Z,73.88
2023-03-17T05:36:50.416Z,73.09
2023-03-17T05:39:17.455Z,72.38
2023-03-17T05:41:45.752Z,71.89
2023-03-17T05:44:14.600Z,70.72
2023-03-17T05:46:42.359Z,69.67
2023-03-17T05:49:09.025Z,69.51
2023-03-17T05:51:37.325Z,69.46
2023-03-17T05:54:04.100Z,68.88
2023-03-17T05:56:35.679Z,68.68
2023-03-17T05:59:06.423Z,68.37
2023-03-17T06:01:32.945Z,67.54
2023-03-17T06:04:00.998Z,67.52
2023-03-17T06:06:28.124Z,66.90
2023-03-17T06:08:54.892Z,67.64
2023-03-17T06:11:21.691Z,67.17
2023-03-17T06:13:48.162Z,67.90
2023-03-17T06:16:15.187Z,68.20
2023-03-17T06:18:41.655Z,68.73
2023-03-17T06:21:08.194Z,69.46
2023-03-17T06:23:34.656Z,72.45
2023-03-17T06:26:01.075Z,74.63
2023-03-17T06:28:27.586Z,76.55
2023-03-17T06:30:54.102Z,76.84
2023-03-17T06:33:20.642Z,77.88
2023-03-17T06:35:47.465Z,77.77
2023-03-17T06:38:13.969Z,78.81
2023-03-17T06:40:40.625Z,78.71
2023-03-17T06:43:07.548Z,78.31
2023-03-17T06:45:34.126Z,77.78
2023-03-17T06:48:01.643Z,77.56
2023-03-17T06:50:28.225Z,77.66
2023-03-17T06:52:54.755Z,78.11
2023-03-17T06:55:21.555Z,78.49
2023-03-17T06:57:50.845Z,78.08
2023-03-17T07:00:18.403Z,78.67
2023-03-17T07:02:44.847Z,77.05
2023-03-17T07:05:12.628Z,74.34
2023-03-17T07:07:39.547Z,71.97
2023-03-17T07:10:07.079Z,68.10
2023-03-17T07:12:34.351Z,64.57
2023-03-17T07:15:01.599Z,60.79
2023-03-17T07:17:28.119Z,58.39
2023-03-17T07:19:54.558Z,55.61
2023-03-17T07:22:21.116Z,54.41
2023-03-17T07:24:49.034Z,54.31
2023-03-17T07:27:16.571Z,54.54
2023-03-17T07:29:43.180Z,53.29
2023-03-17T07:32:10.390Z,51.43
2023-03-17T07:34:37.360Z,50.86
2023-03-17T07:37:05.235Z,50.73
2023-03-17T07:39:31.883Z,50.62
2023-03-17T07:41:58.385Z,49.73
2023-03-17T07:44:25.910Z,50.47
2023-03-17T07:46:52.414Z,48.73
2023-03-17T07:49:27.626Z,49.49
2023-03-17T07:52:00.701Z,48.50
2023-03-17T07:54:27.716Z,49.00
2023-03-17T07:56:54.167Z,48.86
2023-03-17T07:59:21.103Z,48.34
2023-03-17T08:01:47.773Z,47.44
2023-03-17T08:04:14.706Z,48.00
2023-03-17T08:06:42.185Z,48.30
2023-03-17T08:09:09.642Z,47.94
2023-03-17T08:11:36.102Z,47.30
2023-03-17T08:14:02.724Z,46.19
2023-03-17T08:16:30.011Z,47.23
2023-03-17T08:18:58.810Z,46.76
2023-03-17T08:21:26.624Z,45.91
2023-03-17T08:23:54.217Z,45.47
2023-03-17T08:26:20.703Z,46.42
2023-03-17T08:28:48.681Z,44.76
2023-03-17T08:31:18.105Z,44.11
2023-03-17T08:33:50.012Z,44.53
2023-03-17T08:36:17.486Z,42.90
2023-03-17T08:38:44.886Z,42.18
2023-03-17T08:41:14.723Z,43.03
2023-03-17T08:43:42.631Z,41.64
2023-03-17T08:46:15.778Z,42.02
2023-03-17T08:48:42.863Z,41.81
2023-03-17T08:51:09.313Z,41.91
2023-03-17T08:53:36.107Z,41.77
2023-03-17T08:56:04.701Z,40.68
2023-03-17T08:58:33.170Z,40.09
2023-03-17T09:01:01.032Z,40.13
2023-03-17T09:03:28.119Z,40.82
2023-03-17T09:05:54.996Z,40.67
2023-03-17T09:08:21.925Z,39.73
2023-03-17T09:10:48.786Z,40.02
2023-03-17T09:13:16.312Z,39.97
2023-03-17T09:15:42.991Z,40.81
2023-03-17T09:18:10.509Z,40.96
2023-03-17T09:20:37.173Z,40.02
2023-03-17T09:23:08.409Z,40.14
2023-03-17T09:25:36.286Z,38.96
2023-03-17T09:28:02.872Z,38.36
2023-03-17T09:30:29.939Z,39.00
2023-03-17T09:32:56.770Z,38.76
2023-03-17T09:35:23.337Z,38.20
2023-03-17T09:37:50.429Z,39.02
2023-03-17T09:40:20.086Z,38.80
2023-03-17T09:43:06.012Z,38.21
2023-03-17T09:45:38.920Z,37.18
2023-03-17T09:48:22.896Z,36.77
2023-03-17T09:50:56.465Z,37.65
2023-03-17T09:53:49.294Z,36.29
2023-03-17T09:56:17.415Z,35.89
2023-03-17T09:59:05.676Z,35.74
2023-03-17T10:01:32.905Z,36.95
2023-03-17T10:03:59.409Z,35.44
2023-03-17T10:06:39.235Z,36.51
2023-03-17T10:09:26.741Z,35.59
2023-03-17T10:12:09.963Z,34.67
2023-03-17T10:14:44.833Z,34.46
2023-03-17T10:17:22.350Z,34.48
2023-03-17T10:19:56.784Z,33.69
2023-03-17T10:22:35.138Z,34.80
2023-03-17T10:25:10.570Z,35.08
2023-03-17T10:27:37.502Z,34.70
2023-03-17T10:30:06.100Z,34.73
2023-03-17T10:32:37.635Z,34.73
2023-03-17T10:35:04.732Z,34.66
2023-03-17T10:37:36.523Z,34.17
2023-03-17T10:40:10.182Z,34.47
2023-03-17T10:42:47.561Z,34.63
2023-03-17T10:45:15.014Z,33.78
2023-03-17T10:47:47.502Z,33.40
2023-03-17T10:50:30.032Z,32.47
2023-03-17T10:53:01.490Z,33.26
2023-03-17T10:55:31.920Z,32.82
2023-03-17T10:58:02.350Z,33.05
2023-03-17T11:00:33.660Z,33.65
2023-03-17T11:03:12.299Z,33.63
2023-03-17T11:05:40.143Z,34.03
2023-03-17T11:08:18.712Z,34.19
2023-03-17T11:10:45.753Z,33.89
2023-03-17T11:13:18.372Z,34.46
2023-03-17T11:15:53.299Z,34.58
2023-03-17T11:18:23.168Z,35.07
2023-03-17T11:21:13.119Z,34.22
2023-03-17T11:23:39.613Z,34.60
2023-03-17T11:26:18.924Z,34.10
2023-03-17T11:28:56.996Z,34.51
2023-03-17T11:31:31.916Z,34.57
2023-03-17T11:34:05.827Z,34.54
2023-03-17T11:36:58.286Z,33.93
2023-03-17T11:39:27.415Z,33.87
2023-03-17T11:41:57.113Z,34.68
2023-03-17T11:44:49.000Z,34.09
2023-03-17T11:47:21.309Z,34.60
2023-03-17T11:50:02.102Z,34.90
2023-03-17T11:52:33.106Z,35.23
2023-03-17T11:55:23.351Z,34.38
2023-03-17T11:57:59.302Z,34.18
2023-03-17T12:00:31.027Z,34.04
2023-03-17T12:03:06.242Z,33.85
2023-03-17T12:05:34.952Z,34.18
2023-03-17T12:08:16.580Z,33.08
2023-03-17T12:10:46.976Z,33.42
2023-03-17T12:13:15.098Z,33.67
2023-03-17T12:15:45.529Z,33.58
2023-03-17T12:18:24.010Z,33.31
2023-03-17T12:20:58.494Z,33.39
2023-03-17T12:23:48.306Z,33.65
2023-03-17T12:26:16.469Z,33.23
2023-03-17T12:28:57.409Z,33.35
2023-03-17T12:31:32.428Z,33.60
2023-03-17T12:34:21.520Z,33.31
2023-03-17T12:36:51.462Z,32.48
2023-03-17T12:39:33.134Z,32.11
2023-03-17T12:42:09.974Z,31.40
2023-03-17T12:45:02.259Z,31.64
2023-03-17T12:47:52.752Z,31.69
2023-03-17T12:50:32.592Z,32.05
2023-03-17T12:53:24.692Z,31.54
2023-03-17T12:55:52.757Z,31.83
2023-03-17T12:58:29.850Z,31.73
2023-03-17T13:01:08.766Z,31.51
2023-03-17T13:03:38.779Z,31.07
2023-03-17T13:06:08.600Z,31.54
2023-03-17T13:08:38.085Z,31.28
2023-03-17T13:11:29.548Z,31.38
2023-03-17T13:14:25.868Z,30.28
2023-03-17T13:17:02.974Z,29.99
2023-03-17T13:19:33.836Z,30.12
2023-03-17T13:22:00.563Z,29.56
2023-03-17T13:24:40.594Z,30.49
2023-03-17T13:27:11.570Z,30.73
2023-03-17T13:29:41.977Z,30.66
2023-03-17T13:32:17.343Z,29.45
2023-03-17T13:35:16.653Z,30.11
2023-03-17T13:37:52.206Z,30.49
2023-03-17T13:40:22.041Z,30.73
2023-03-17T13:42:54.113Z,30.64
2023-03-17T13:45:37.321Z,30.82
2023-03-17T13:48:36.260Z,31.42
2023-03-17T13:51:14.473Z,30.79
2023-03-17T13:53:46.963Z,30.35
2023-03-17T13:56:36.249Z,30.89
2023-03-17T13:59:03.701Z,31.27
2023-03-17T14:01:41.906Z,31.26
2023-03-17T14:04:18.807Z,31.41
2023-03-17T14:06:45.737Z,31.08
2023-03-17T14:09:28.323Z,30.98
2023-03-17T14:11:57.330Z,31.27
2023-03-17T14:14:32.965Z,31.08
2023-03-17T14:17:16.661Z,31.19
2023-03-17T14:20:00.798Z,31.18
2023-03-17T14:22:27.691Z,31.77
2023-03-17T14:24:55.966Z,31.57
2023-03-17T14:27:24.006Z,31.75
2023-03-17T14:29:52.249Z,31.91
2023-03-17T14:32:21.261Z,32.32
2023-03-17T14:34:58.492Z,32.76
2023-03-17T14:37:25.190Z,32.67
2023-03-17T14:39:54.159Z,33.49
2023-03-17T14:42:29.469Z,33.20
2023-03-17T14:45:08.464Z,33.40
2023-03-17T14:47:40.322Z,33.64
2023-03-17T14:50:17.396Z,33.40
2023-03-17T14:52:44.183Z,33.36
2023-03-17T14:55:15.507Z,33.37
2023-03-17T14:57:42.082Z,33.62
2023-03-17T15:00:21.793Z,33.61
2023-03-17T15:02:56.458Z,33.80
2023-03-17T15:05:38.646Z,34.51
2023-03-17T15:08:39.572Z,34.13
2023-03-17T15:11:07.074Z,34.46
2023-03-17T15:13:36.344Z,33.81
2023-03-17T15:16:18.194Z,34.23
2023-03-17T15:18:44.999Z,34.66
2023-03-17T15:21:29.861Z,34.13
2023-03-17T15:23:56.410Z,34.35
2023-03-17T15:26:31.612Z,34.50
2023-03-17T15:28:59.753Z,34.37
2023-03-17T15:31:29.462Z,34.74
2023-03-17T15:33:56.356Z,34.59
2023-03-17T15:36:32.154Z,35.05
2023-03-17T15:38:59.410Z,35.24
2023-03-17T15:41:26.027Z,35.50
2023-03-17T15:43:53.633Z,35.08
2023-03-17T15:46:27.918Z,35.02
2023-03-17T15:48:55.134Z,35.06
2023-03-17T15:51:22.049Z,35.85
2023-03-17T15:53:48.840Z,36.32
2023-03-17T15:56:18.964Z,36.40
2023-03-17T15:58:48.072Z,37.01
2023-03-17T16:01:15.677Z,36.91
2023-03-17T16:03:42.487Z,37.21
2023-03-17T16:06:21.223Z,37.30
2023-03-17T16:08:49.267Z,37.21
2023-03-17T16:11:27.815Z,37.79
2023-03-17T16:13:59.042Z,37.79
2023-03-17T16:16:39.935Z,38.22
2023-03-17T16:19:17.638Z,38.02
2023-03-17T16:21:44.306Z,38.08
2023-03-17T16:24:18.749Z,37.90
2023-03-17T16:26:45.478Z,38.35
2023-03-17T16:29:15.630Z,38.19
2023-03-17T16:31:43.973Z,38.43
2023-03-17T16:34:21.197Z,38.67
2023-03-17T16:36:48.456Z,38.48
2023-03-17T16:39:22.954Z,39.07
2023-03-17T16:41:50.328Z,39.05
2023-03-17T16:44:18.454Z,38.63
2023-03-17T16:46:45.208Z,38.82
2023-03-17T16:49:16.107Z,38.98
2023-03-17T16:51:43.356Z,39.21
2023-03-17T16:54:10.714Z,39.50
2023-03-17T16:56:39.150Z,40.02
2023-03-17T16:59:10.412Z,39.86
2023-03-17T17:01:36.989Z,39.82
2023-03-17T17:04:03.466Z,40.18
2023-03-17T17:06:29.870Z,40.85
2023-03-17T17:08:56.350Z,40.69
2023-03-17T17:11:22.789Z,40.89
2023-03-17T17:13:49.909Z,40.63
2023-03-17T17:16:26.530Z,41.03
2023-03-17T17:18:53.474Z,41.91
2023-03-17T17:21:19.988Z,41.67
2023-03-17T17:23:46.626Z,41.81
2023-03-17T17:26:13.172Z,41.90
2023-03-17T17:28:40.366Z,42.02
2023-03-17T17:31:08.498Z,42.12
2023-03-17T17:33:36.250Z,42.51
2023-03-17T17:36:04.675Z,42.63
2023-03-17T17:38:31.709Z,42.51
2023-03-17T17:40:59.897Z,43.00
2023-03-17T17:43:26.465Z,43.37
2023-03-17T17:45:53.230Z,43.59
2023-03-17T17:48:23.455Z,44.09
2023-03-17T17:50:51.015Z,44.32
2023-03-17T17:53:18.061Z,44.26
2023-03-17T17:55:45.993Z,44.30
2023-03-17T17:58:25.188Z,44.48
2023-03-17T18:00:54.055Z,44.66
2023-03-17T18:03:24.509Z,44.81
2023-03-17T18:05:55.252Z,44.79
2023-03-17T18:08:22.122Z,44.96
2023-03-17T18:10:50.759Z,45.12
2023-03-17T18:13:18.283Z,45.12
2023-03-17T18:15:44.741Z,45.04
2023-03-17T18:18:11.208Z,45.00
2023-03-17T18:20:38.234Z,45.18
2023-03-17T18:23:04.724Z,45.45
2023-03-17T18:25:31.282Z,45.48
2023-03-17T18:27:57.834Z,45.52
2023-03-17T18:30:26.835Z,44.53
2023-03-17T18:32:55.870Z,45.11
2023-03-17T18:35:23.547Z,45.07
2023-03-17T18:37:50.776Z,45.22
2023-03-17T18:40:19.082Z,45.83
2023-03-17T18:42:46.296Z,45.45
2023-03-17T18:45:14.002Z,45.93
2023-03-17T18:47:41.875Z,46.20
2023-03-17T18:50:10.204Z,46.39
2023-03-17T18:52:38.546Z,46.10
2023-03-17T18:55:06.524Z,46.83
2023-03-17T18:57:33.320Z,46.32
2023-03-17T18:59:59.819Z,47.13
2023-03-17T19:02:26.517Z,46.89
2023-03-17T19:04:53.179Z,46.82
2023-03-17T19:07:19.838Z,46.90
2023-03-17T19:09:46.274Z,47.33
2023-03-17T19:12:13.489Z,47.64
2023-03-17T19:14:40.355Z,47.51
2023-03-17T19:17:07.532Z,47.40
2023-03-17T19:19:35.270Z,47.15
2023-03-17T19:22:01.990Z,47.52
2023-03-17T19:24:28.711Z,47.58
2023-03-17T19:26:55.227Z,46.88
2023-03-17T19:29:21.808Z,47.27
2023-03-17T19:31:48.897Z,47.76
2023-03-17T19:34:15.523Z,47.23
2023-03-17T19:36:45.726Z,47.50
2023-03-17T19:39:13.147Z,47.08
2023-03-17T19:41:40.017Z,47.63
2023-03-17T19:44:06.827Z,47.44
2023-03-17T19:46:34.388Z,47.72
2023-03-17T19:49:01.574Z,47.84
2023-03-17T19:51:28.408Z,47.58
2023-03-17T19:53:55.546Z,47.23
2023-03-17T19:56:23.179Z,47.72
2023-03-17T19:58:50.054Z,47.04
2023-03-17T20:01:17.171Z,47.75
2023-03-17T20:03:43.798Z,46.96
2023-03-17T20:06:11.984Z,47.86
2023-03-17T20:08:39.547Z,47.12
2023-03-17T20:11:06.660Z,47.40
2023-03-17T20:13:34.733Z,47.52
2023-03-17T20:16:01.892Z,47.22
2023-03-17T20:18:29.107Z,47.50
2023-03-17T20:20:57.485Z,47.46
2023-03-17T20:23:25.097Z,47.78
2023-03-17T20:25:52.590Z,48.04
2023-03-17T20:28:21.399Z,47.34
2023-03-17T20:30:49.286Z,47.18
2023-03-17T20:33:16.622Z,47.04
2023-03-17T20:35:46.562Z,47.47
2023-03-17T20:38:14.610Z,48.14
2023-03-17T20:40:41.987Z,47.47
2023-03-17T20:43:08.547Z,47.88
2023-03-17T20:45:35.064Z,47.11
2023-03-17T20:48:02.020Z,47.91
2023-03-17T20:50:29.432Z,47.61
2023-03-17T20:52:55.869Z,47.72
2023-03-17T20:55:22.347Z,47.33
2023-03-17T20:57:49.832Z,47.32
2023-03-17T21:00:19.999Z,48.03
2023-03-17T21:02:50.597Z,47.86
2023-03-17T21:05:20.308Z,47.22
2023-03-17T21:07:48.359Z,47.43
2023-03-17T21:10:15.969Z,48.31
2023-03-17T21:12:42.878Z,48.46
2023-03-17T21:15:10.263Z,48.47
2023-03-17T21:17:38.044Z,47.49
2023-03-17T21:20:10.007Z,48.18
2023-03-17T21:22:37.015Z,48.51
2023-03-17T21:25:04.609Z,48.12
2023-03-17T21:27:31.904Z,47.79
2023-03-17T21:29:58.433Z,48.41
2023-03-17T21:32:25.007Z,47.98
2023-03-17T21:34:51.577Z,48.03
2023-03-17T21:37:18.730Z,48.71
2023-03-17T21:39:45.789Z,49.46
2023-03-17T21:42:12.445Z,48.87
2023-03-17T21:44:39.527Z,49.42
2023-03-17T21:47:05.902Z,49.00
2023-03-17T21:49:32.343Z,49.97
2023-03-17T21:51:58.816Z,49.90
2023-03-17T21:54:25.584Z,49.97
2023-03-17T21:56:53.485Z,50.77
2023-03-17T21:59:20.932Z,50.80
2023-03-17T22:01:47.883Z,50.83
2023-03-17T22:04:14.314Z,50.81
2023-03-17T22:06:41.150Z,50.71
2023-03-17T22:09:08.590Z,50.86
2023-03-17T22:11:34.964Z,51.03
2023-03-17T22:14:01.803Z,49.93
2023-03-17T22:16:28.237Z,50.78
2023-03-17T22:18:54.937Z,50.48
2023-03-17T22:21:21.644Z,50.81
2023-03-17T22:23:48.200Z,51.18
2023-03-17T22:26:17.354Z,51.18
2023-03-17T22:28:44.749Z,51.54
2023-03-17T22:31:16.547Z,51.58
2023-03-17T22:33:44.083Z,51.47
2023-03-17T22:36:11.167Z,51.02
2023-03-17T22:38:38.342Z,51.20
2023-03-17T22:41:08.000Z,51.89
2023-03-17T22:43:36.122Z,51.87
2023-03-17T22:46:02.985Z,51.73
2023-03-17T22:48:29.541Z,51.86
2023-03-17T22:50:56.056Z,52.56
2023-03-17T22:53:22.532Z,52.71
2023-03-17T22:55:48.954Z,52.00
2023-03-17T22:58:15.371Z,52.60
2023-03-17T23:00:42.394Z,52.02
2023-03-17T23:03:08.838Z,51.66
2023-03-17T23:05:35.329Z,52.99
2023-03-17T23:08:01.879Z,53.22
2023-03-17T23:10:28.536Z,52.88
2023-03-17T23:12:55.211Z,52.58
2023-03-17T23:15:21.846Z,52.68
2023-03-17T23:17:48.723Z,52.27
2023-03-17T23:20:15.735Z,52.97
2023-03-17T23:22:42.268Z,52.98
2023-03-17T23:25:09.466Z,53.30
2023-03-17T23:27:36.040Z,53.73
2023-03-17T23:30:03.676Z,53.40
2023-03-17T23:32:30.307Z,53.98
2023-03-17T23:34:56.748Z,54.32
2023-03-17T23:37:23.613Z,54.17
2023-03-17T23:39:50.010Z,54.50
2023-03-17T23:42:17.231Z,54.06
2023-03-17T23:44:45.057Z,54.34
2023-03-17T23:47:11.710Z,54.57
2023-03-17T23:49:38.793Z,54.60
2023-03-17T23:52:05.382Z,54.77
2023-03-17T23:54:32.026Z,55.31
2023-03-17T23:56:58.534Z,54.50
2023-03-17T23:59:25.280Z,55.40
